sensor_id;sensor_type;location;lat;lon;timestamp;P1;durP1;ratioP1;P2;durP2;ratioP2
46731;SDS011;32477;51.474;5.696;2022-09-23T00:00:44;20.88;;;11.60;;
46731;SDS011;32477;51.474;5.696;2022-09-23T00:03:10;21.90;;;11.57;;
46731;SDS011;32477;51.474;5.696;2022-09-23T00:05:37;26.42;;;13.20;;
46731;SDS011;32477;51.474;5.696;2022-09-23T00:08:03;23.88;;;11.23;;
46731;SDS011;32477;51.474;5.696;2022-09-23T00:10:30;22.55;;;12.27;;
46731;SDS011;32477;51.474;5.696;2022-09-23T00:12:56;26.00;;;12.15;;
46731;SDS011;32477;51.474;5.696;2022-09-23T00:15:23;17.92;;;12.60;;
46731;SDS011;32477;51.474;5.696;2022-09-23T00:17:49;20.98;;;12.10;;
46731;SDS011;32477;51.474;5.696;2022-09-23T00:20:16;26.10;;;11.65;;
46731;SDS011;32477;51.474;5.696;2022-09-23T00:22:42;16.52;;;10.82;;
46731;SDS011;32477;51.474;5.696;2022-09-23T00:25:08;25.65;;;11.32;;
46731;SDS011;32477;51.474;5.696;2022-09-23T00:27:35;18.95;;;11.43;;
46731;SDS011;32477;51.474;5.696;2022-09-23T00:30:06;21.75;;;10.55;;
46731;SDS011;32477;51.474;5.696;2022-09-23T00:32:33;16.33;;;11.35;;
46731;SDS011;32477;51.474;5.696;2022-09-23T00:35:00;16.30;;;10.93;;
46731;SDS011;32477;51.474;5.696;2022-09-23T00:37:28;19.05;;;10.15;;
46731;SDS011;32477;51.474;5.696;2022-09-23T00:39:54;22.02;;;11.30;;
46731;SDS011;32477;51.474;5.696;2022-09-23T00:42:20;15.27;;;10.90;;
46731;SDS011;32477;51.474;5.696;2022-09-23T00:44:51;18.52;;;12.10;;
46731;SDS011;32477;51.474;5.696;2022-09-23T00:49:43;15.50;;;10.30;;
46731;SDS011;32477;51.474;5.696;2022-09-23T00:52:12;18.52;;;11.15;;
46731;SDS011;32477;51.474;5.696;2022-09-23T00:54:42;17.80;;;10.60;;
46731;SDS011;32477;51.474;5.696;2022-09-23T00:57:10;19.80;;;10.45;;
46731;SDS011;32477;51.474;5.696;2022-09-23T00:59:39;19.05;;;11.43;;
46731;SDS011;32477;51.474;5.696;2022-09-23T01:02:06;20.77;;;11.20;;
46731;SDS011;32477;51.474;5.696;2022-09-23T01:04:33;20.58;;;10.48;;
46731;SDS011;32477;51.474;5.696;2022-09-23T01:07:00;17.00;;;10.63;;
46731;SDS011;32477;51.474;5.696;2022-09-23T01:09:26;22.05;;;10.50;;
46731;SDS011;32477;51.474;5.696;2022-09-23T01:11:56;16.48;;;11.13;;
46731;SDS011;32477;51.474;5.696;2022-09-23T01:23:30;22.65;;;11.20;;
46731;SDS011;32477;51.474;5.696;2022-09-23T01:29:39;19.27;;;11.75;;
46731;SDS011;32477;51.474;5.696;2022-09-23T01:43:41;21.75;;;12.75;;
46731;SDS011;32477;51.474;5.696;2022-09-23T01:46:17;22.02;;;12.43;;
46731;SDS011;32477;51.474;5.696;2022-09-23T01:49:14;23.60;;;13.00;;
46731;SDS011;32477;51.474;5.696;2022-09-23T01:51:56;20.20;;;12.05;;
46731;SDS011;32477;51.474;5.696;2022-09-23T01:54:35;20.17;;;12.43;;
46731;SDS011;32477;51.474;5.696;2022-09-23T01:57:06;21.80;;;12.50;;
46731;SDS011;32477;51.474;5.696;2022-09-23T01:59:38;27.83;;;13.57;;
46731;SDS011;32477;51.474;5.696;2022-09-23T02:02:14;17.98;;;13.27;;
46731;SDS011;32477;51.474;5.696;2022-09-23T02:07:23;23.42;;;12.98;;
46731;SDS011;32477;51.474;5.696;2022-09-23T02:09:52;26.45;;;12.70;;
46731;SDS011;32477;51.474;5.696;2022-09-23T02:12:24;23.38;;;13.25;;
46731;SDS011;32477;51.474;5.696;2022-09-23T02:15:13;24.65;;;13.38;;
46731;SDS011;32477;51.474;5.696;2022-09-23T02:17:46;22.52;;;12.52;;
46731;SDS011;32477;51.474;5.696;2022-09-23T02:20:17;23.70;;;13.77;;
46731;SDS011;32477;51.474;5.696;2022-09-23T02:22:50;25.88;;;13.38;;
46731;SDS011;32477;51.474;5.696;2022-09-23T02:25:18;20.42;;;13.13;;
46731;SDS011;32477;51.474;5.696;2022-09-23T02:27:57;19.35;;;12.48;;
46731;SDS011;32477;51.474;5.696;2022-09-23T02:31:24;25.95;;;12.95;;
46731;SDS011;32477;51.474;5.696;2022-09-23T02:33:51;21.88;;;13.38;;
46731;SDS011;32477;51.474;5.696;2022-09-23T02:36:33;24.58;;;12.93;;
46731;SDS011;32477;51.474;5.696;2022-09-23T02:39:10;22.20;;;13.00;;
46731;SDS011;32477;51.474;5.696;2022-09-23T02:41:43;21.95;;;13.15;;
46731;SDS011;32477;51.474;5.696;2022-09-23T02:44:22;20.60;;;13.27;;
46731;SDS011;32477;51.474;5.696;2022-09-23T02:46:48;23.10;;;12.88;;
46731;SDS011;32477;51.474;5.696;2022-09-23T02:49:23;19.38;;;13.20;;
46731;SDS011;32477;51.474;5.696;2022-09-23T02:51:52;20.95;;;12.73;;
46731;SDS011;32477;51.474;5.696;2022-09-23T02:54:19;18.73;;;13.02;;
46731;SDS011;32477;51.474;5.696;2022-09-23T02:56:49;18.88;;;11.77;;
46731;SDS011;32477;51.474;5.696;2022-09-23T02:59:16;22.67;;;12.77;;
46731;SDS011;32477;51.474;5.696;2022-09-23T03:10:13;20.35;;;12.35;;
46731;SDS011;32477;51.474;5.696;2022-09-23T03:12:51;19.10;;;12.27;;
46731;SDS011;32477;51.474;5.696;2022-09-23T03:15:37;23.48;;;12.57;;
46731;SDS011;32477;51.474;5.696;2022-09-23T03:18:30;23.40;;;12.48;;
46731;SDS011;32477;51.474;5.696;2022-09-23T03:21:02;19.38;;;11.70;;
46731;SDS011;32477;51.474;5.696;2022-09-23T03:23:43;27.73;;;13.18;;
46731;SDS011;32477;51.474;5.696;2022-09-23T03:26:22;20.02;;;11.88;;
46731;SDS011;32477;51.474;5.696;2022-09-23T03:28:52;20.98;;;12.63;;
46731;SDS011;32477;51.474;5.696;2022-09-23T03:31:18;20.98;;;11.68;;
46731;SDS011;32477;51.474;5.696;2022-09-23T03:33:45;27.23;;;12.18;;
46731;SDS011;32477;51.474;5.696;2022-09-23T03:36:20;18.40;;;11.80;;
46731;SDS011;32477;51.474;5.696;2022-09-23T03:42:09;20.05;;;12.30;;
46731;SDS011;32477;51.474;5.696;2022-09-23T03:44:51;28.23;;;12.32;;
46731;SDS011;32477;51.474;5.696;2022-09-23T03:47:18;21.60;;;12.88;;
46731;SDS011;32477;51.474;5.696;2022-09-23T03:49:45;26.10;;;13.45;;
46731;SDS011;32477;51.474;5.696;2022-09-23T03:52:13;19.67;;;12.35;;
46731;SDS011;32477;51.474;5.696;2022-09-23T03:54:39;22.35;;;13.15;;
46731;SDS011;32477;51.474;5.696;2022-09-23T03:57:05;19.15;;;13.02;;
46731;SDS011;32477;51.474;5.696;2022-09-23T03:59:31;24.55;;;12.23;;
46731;SDS011;32477;51.474;5.696;2022-09-23T04:01:57;25.13;;;13.75;;
46731;SDS011;32477;51.474;5.696;2022-09-23T04:04:23;23.67;;;13.98;;
46731;SDS011;32477;51.474;5.696;2022-09-23T04:06:50;26.48;;;13.00;;
46731;SDS011;32477;51.474;5.696;2022-09-23T04:09:16;26.38;;;13.77;;
46731;SDS011;32477;51.474;5.696;2022-09-23T04:11:41;23.90;;;13.27;;
46731;SDS011;32477;51.474;5.696;2022-09-23T04:14:07;23.92;;;14.10;;
46731;SDS011;32477;51.474;5.696;2022-09-23T04:16:33;19.90;;;13.00;;
46731;SDS011;32477;51.474;5.696;2022-09-23T04:18:58;24.77;;;15.25;;
46731;SDS011;32477;51.474;5.696;2022-09-23T04:21:24;23.40;;;13.50;;
46731;SDS011;32477;51.474;5.696;2022-09-23T04:23:50;22.58;;;13.65;;
46731;SDS011;32477;51.474;5.696;2022-09-23T04:26:16;22.83;;;13.88;;
46731;SDS011;32477;51.474;5.696;2022-09-23T04:28:43;19.67;;;13.32;;
46731;SDS011;32477;51.474;5.696;2022-09-23T04:31:08;21.27;;;13.50;;
46731;SDS011;32477;51.474;5.696;2022-09-23T04:33:34;26.40;;;14.63;;
46731;SDS011;32477;51.474;5.696;2022-09-23T04:36:00;25.48;;;14.05;;
46731;SDS011;32477;51.474;5.696;2022-09-23T04:38:26;27.10;;;13.02;;
46731;SDS011;32477;51.474;5.696;2022-09-23T04:40:52;27.05;;;14.70;;
46731;SDS011;32477;51.474;5.696;2022-09-23T04:43:17;25.30;;;14.40;;
46731;SDS011;32477;51.474;5.696;2022-09-23T04:45:44;24.35;;;14.20;;
46731;SDS011;32477;51.474;5.696;2022-09-23T04:48:10;30.80;;;14.00;;
46731;SDS011;32477;51.474;5.696;2022-09-23T04:50:38;30.02;;;15.18;;
46731;SDS011;32477;51.474;5.696;2022-09-23T04:53:04;24.73;;;14.65;;
46731;SDS011;32477;51.474;5.696;2022-09-23T04:55:30;25.00;;;14.13;;
46731;SDS011;32477;51.474;5.696;2022-09-23T04:57:55;28.33;;;14.70;;
46731;SDS011;32477;51.474;5.696;2022-09-23T05:00:22;26.65;;;14.63;;
46731;SDS011;32477;51.474;5.696;2022-09-23T05:02:50;30.70;;;14.43;;
46731;SDS011;32477;51.474;5.696;2022-09-23T05:05:16;29.98;;;14.93;;
46731;SDS011;32477;51.474;5.696;2022-09-23T05:07:46;33.05;;;14.15;;
46731;SDS011;32477;51.474;5.696;2022-09-23T05:10:12;24.35;;;14.18;;
46731;SDS011;32477;51.474;5.696;2022-09-23T05:12:39;23.20;;;14.25;;
46731;SDS011;32477;51.474;5.696;2022-09-23T05:15:04;28.63;;;13.95;;
46731;SDS011;32477;51.474;5.696;2022-09-23T05:17:30;23.55;;;13.88;;
46731;SDS011;32477;51.474;5.696;2022-09-23T05:19:56;23.63;;;13.80;;
46731;SDS011;32477;51.474;5.696;2022-09-23T05:22:23;22.65;;;13.48;;
46731;SDS011;32477;51.474;5.696;2022-09-23T05:24:53;24.00;;;12.70;;
46731;SDS011;32477;51.474;5.696;2022-09-23T05:27:18;21.75;;;12.43;;
46731;SDS011;32477;51.474;5.696;2022-09-23T05:29:45;22.55;;;11.43;;
46731;SDS011;32477;51.474;5.696;2022-09-23T05:32:11;24.20;;;12.85;;
46731;SDS011;32477;51.474;5.696;2022-09-23T05:34:38;23.42;;;12.30;;
46731;SDS011;32477;51.474;5.696;2022-09-23T05:37:04;22.77;;;12.55;;
46731;SDS011;32477;51.474;5.696;2022-09-23T05:39:29;23.83;;;12.48;;
46731;SDS011;32477;51.474;5.696;2022-09-23T05:41:55;17.60;;;12.52;;
46731;SDS011;32477;51.474;5.696;2022-09-23T05:44:21;25.17;;;12.88;;
46731;SDS011;32477;51.474;5.696;2022-09-23T05:46:47;20.38;;;12.65;;
46731;SDS011;32477;51.474;5.696;2022-09-23T05:49:13;17.10;;;12.20;;
46731;SDS011;32477;51.474;5.696;2022-09-23T05:51:38;30.85;;;12.32;;
46731;SDS011;32477;51.474;5.696;2022-09-23T05:54:04;26.98;;;12.82;;
46731;SDS011;32477;51.474;5.696;2022-09-23T05:56:30;19.33;;;11.15;;
46731;SDS011;32477;51.474;5.696;2022-09-23T05:58:58;19.65;;;10.73;;
46731;SDS011;32477;51.474;5.696;2022-09-23T06:01:25;22.05;;;11.15;;
46731;SDS011;32477;51.474;5.696;2022-09-23T06:03:53;16.88;;;10.60;;
46731;SDS011;32477;51.474;5.696;2022-09-23T06:06:23;24.83;;;11.05;;
46731;SDS011;32477;51.474;5.696;2022-09-23T06:09:11;19.13;;;10.00;;
46731;SDS011;32477;51.474;5.696;2022-09-23T06:11:38;13.25;;;8.90;;
46731;SDS011;32477;51.474;5.696;2022-09-23T06:14:04;18.08;;;8.73;;
46731;SDS011;32477;51.474;5.696;2022-09-23T06:16:31;18.00;;;7.30;;
46731;SDS011;32477;51.474;5.696;2022-09-23T06:18:57;13.95;;;7.63;;
46731;SDS011;32477;51.474;5.696;2022-09-23T06:21:29;17.80;;;7.97;;
46731;SDS011;32477;51.474;5.696;2022-09-23T06:23:56;15.50;;;7.35;;
46731;SDS011;32477;51.474;5.696;2022-09-23T06:26:24;16.00;;;6.97;;
46731;SDS011;32477;51.474;5.696;2022-09-23T06:28:50;9.98;;;6.70;;
46731;SDS011;32477;51.474;5.696;2022-09-23T06:31:16;15.15;;;6.32;;
46731;SDS011;32477;51.474;5.696;2022-09-23T06:33:43;16.33;;;6.15;;
46731;SDS011;32477;51.474;5.696;2022-09-23T06:36:10;14.20;;;6.55;;
46731;SDS011;32477;51.474;5.696;2022-09-23T06:38:42;11.48;;;6.63;;
46731;SDS011;32477;51.474;5.696;2022-09-23T06:41:08;13.30;;;6.50;;
46731;SDS011;32477;51.474;5.696;2022-09-23T06:43:35;18.30;;;6.63;;
46731;SDS011;32477;51.474;5.696;2022-09-23T06:46:02;16.15;;;6.68;;
46731;SDS011;32477;51.474;5.696;2022-09-23T06:48:29;10.10;;;5.80;;
46731;SDS011;32477;51.474;5.696;2022-09-23T06:50:58;10.90;;;5.75;;
46731;SDS011;32477;51.474;5.696;2022-09-23T06:53:29;10.02;;;6.18;;
46731;SDS011;32477;51.474;5.696;2022-09-23T06:56:01;12.23;;;5.40;;
46731;SDS011;32477;51.474;5.696;2022-09-23T06:58:30;8.60;;;5.75;;
46731;SDS011;32477;51.474;5.696;2022-09-23T07:01:03;9.95;;;5.68;;
46731;SDS011;32477;51.474;5.696;2022-09-23T07:03:31;14.40;;;5.80;;
46731;SDS011;32477;51.474;5.696;2022-09-23T07:05:58;10.32;;;5.93;;
46731;SDS011;32477;51.474;5.696;2022-09-23T07:08:25;8.02;;;4.95;;
46731;SDS011;32477;51.474;5.696;2022-09-23T07:10:55;12.50;;;5.35;;
46731;SDS011;32477;51.474;5.696;2022-09-23T07:13:22;9.85;;;5.68;;
46731;SDS011;32477;51.474;5.696;2022-09-23T07:15:52;7.75;;;5.07;;
46731;SDS011;32477;51.474;5.696;2022-09-23T07:18:20;9.73;;;5.25;;
46731;SDS011;32477;51.474;5.696;2022-09-23T07:20:49;6.57;;;4.65;;
46731;SDS011;32477;51.474;5.696;2022-09-23T07:23:19;9.52;;;5.13;;
46731;SDS011;32477;51.474;5.696;2022-09-23T07:25:45;8.57;;;4.47;;
46731;SDS011;32477;51.474;5.696;2022-09-23T07:28:14;7.18;;;4.82;;
46731;SDS011;32477;51.474;5.696;2022-09-23T07:30:43;12.82;;;4.82;;
46731;SDS011;32477;51.474;5.696;2022-09-23T07:33:10;8.75;;;4.72;;
46731;SDS011;32477;51.474;5.696;2022-09-23T07:35:37;6.57;;;4.60;;
46731;SDS011;32477;51.474;5.696;2022-09-23T07:38:05;7.32;;;4.70;;
46731;SDS011;32477;51.474;5.696;2022-09-23T07:40:31;9.57;;;4.80;;
46731;SDS011;32477;51.474;5.696;2022-09-23T07:42:57;9.68;;;3.97;;
46731;SDS011;32477;51.474;5.696;2022-09-23T07:45:23;7.00;;;4.50;;
46731;SDS011;32477;51.474;5.696;2022-09-23T07:47:51;8.88;;;4.50;;
46731;SDS011;32477;51.474;5.696;2022-09-23T07:50:19;10.50;;;4.60;;
46731;SDS011;32477;51.474;5.696;2022-09-23T07:52:46;5.78;;;4.10;;
46731;SDS011;32477;51.474;5.696;2022-09-23T07:55:14;10.00;;;4.60;;
46731;SDS011;32477;51.474;5.696;2022-09-23T07:57:39;7.75;;;4.47;;
46731;SDS011;32477;51.474;5.696;2022-09-23T08:00:05;7.47;;;4.13;;
46731;SDS011;32477;51.474;5.696;2022-09-23T08:02:38;5.20;;;3.88;;
46731;SDS011;32477;51.474;5.696;2022-09-23T08:05:04;6.68;;;4.22;;
46731;SDS011;32477;51.474;5.696;2022-09-23T08:07:31;10.27;;;4.93;;
46731;SDS011;32477;51.474;5.696;2022-09-23T08:09:58;11.48;;;4.45;;
46731;SDS011;32477;51.474;5.696;2022-09-23T08:12:25;7.10;;;4.28;;
46731;SDS011;32477;51.474;5.696;2022-09-23T08:14:51;9.65;;;4.55;;
46731;SDS011;32477;51.474;5.696;2022-09-23T08:17:17;8.05;;;3.78;;
46731;SDS011;32477;51.474;5.696;2022-09-23T08:19:42;17.52;;;4.85;;
46731;SDS011;32477;51.474;5.696;2022-09-23T08:22:08;10.35;;;4.22;;
46731;SDS011;32477;51.474;5.696;2022-09-23T08:24:34;6.45;;;4.28;;
46731;SDS011;32477;51.474;5.696;2022-09-23T08:26:59;8.60;;;4.28;;
46731;SDS011;32477;51.474;5.696;2022-09-23T08:29:25;11.57;;;4.28;;
46731;SDS011;32477;51.474;5.696;2022-09-23T08:31:51;9.05;;;5.15;;
46731;SDS011;32477;51.474;5.696;2022-09-23T08:34:18;9.55;;;4.53;;
46731;SDS011;32477;51.474;5.696;2022-09-23T08:36:45;9.30;;;3.92;;
46731;SDS011;32477;51.474;5.696;2022-09-23T08:39:14;6.80;;;3.92;;
46731;SDS011;32477;51.474;5.696;2022-09-23T08:50:21;8.07;;;4.40;;
46731;SDS011;32477;51.474;5.696;2022-09-23T08:55:28;8.07;;;4.28;;
46731;SDS011;32477;51.474;5.696;2022-09-23T09:03:31;6.00;;;3.85;;
46731;SDS011;32477;51.474;5.696;2022-09-23T09:06:00;9.38;;;4.82;;
46731;SDS011;32477;51.474;5.696;2022-09-23T09:08:29;8.77;;;4.43;;
46731;SDS011;32477;51.474;5.696;2022-09-23T09:10:59;7.70;;;4.50;;
46731;SDS011;32477;51.474;5.696;2022-09-23T09:13:28;7.95;;;4.60;;
46731;SDS011;32477;51.474;5.696;2022-09-23T09:19:06;11.85;;;4.45;;
46731;SDS011;32477;51.474;5.696;2022-09-23T09:21:44;8.18;;;4.30;;
46731;SDS011;32477;51.474;5.696;2022-09-23T09:24:15;13.93;;;5.43;;
46731;SDS011;32477;51.474;5.696;2022-09-23T09:26:45;11.70;;;4.15;;
46731;SDS011;32477;51.474;5.696;2022-09-23T09:29:13;10.02;;;4.88;;
46731;SDS011;32477;51.474;5.696;2022-09-23T09:31:43;13.02;;;5.35;;
46731;SDS011;32477;51.474;5.696;2022-09-23T09:39:46;8.70;;;4.30;;
46731;SDS011;32477;51.474;5.696;2022-09-23T09:42:23;6.90;;;3.90;;
46731;SDS011;32477;51.474;5.696;2022-09-23T09:44:59;11.35;;;4.72;;
46731;SDS011;32477;51.474;5.696;2022-09-23T09:50:08;12.15;;;5.07;;
46731;SDS011;32477;51.474;5.696;2022-09-23T09:52:37;8.80;;;4.65;;
46731;SDS011;32477;51.474;5.696;2022-09-23T10:00:41;10.75;;;4.65;;
46731;SDS011;32477;51.474;5.696;2022-09-23T10:05:51;8.50;;;4.90;;
46731;SDS011;32477;51.474;5.696;2022-09-23T10:11:10;13.27;;;4.60;;
46731;SDS011;32477;51.474;5.696;2022-09-23T10:13:39;11.70;;;5.10;;
46731;SDS011;32477;51.474;5.696;2022-09-23T10:16:06;9.50;;;4.78;;
46731;SDS011;32477;51.474;5.696;2022-09-23T10:18:47;8.00;;;4.47;;
46731;SDS011;32477;51.474;5.696;2022-09-23T10:21:15;9.23;;;4.35;;
46731;SDS011;32477;51.474;5.696;2022-09-23T10:23:55;10.65;;;4.50;;
46731;SDS011;32477;51.474;5.696;2022-09-23T10:26:26;8.82;;;5.20;;
46731;SDS011;32477;51.474;5.696;2022-09-23T10:28:57;11.32;;;4.75;;
46731;SDS011;32477;51.474;5.696;2022-09-23T10:31:27;9.13;;;4.75;;
46731;SDS011;32477;51.474;5.696;2022-09-23T10:33:58;10.77;;;5.57;;
46731;SDS011;32477;51.474;5.696;2022-09-23T10:36:26;8.27;;;4.93;;
46731;SDS011;32477;51.474;5.696;2022-09-23T10:39:03;7.88;;;4.68;;
46731;SDS011;32477;51.474;5.696;2022-09-23T10:41:58;12.35;;;4.50;;
46731;SDS011;32477;51.474;5.696;2022-09-23T10:44:53;7.10;;;4.50;;
46731;SDS011;32477;51.474;5.696;2022-09-23T10:47:50;7.38;;;3.92;;
46731;SDS011;32477;51.474;5.696;2022-09-23T10:50:34;8.02;;;4.10;;
46731;SDS011;32477;51.474;5.696;2022-09-23T11:18:02;9.48;;;3.95;;
46731;SDS011;32477;51.474;5.696;2022-09-23T11:23:52;8.40;;;4.07;;
46731;SDS011;32477;51.474;5.696;2022-09-23T11:29:50;5.43;;;3.35;;
46731;SDS011;32477;51.474;5.696;2022-09-23T11:35:11;7.60;;;3.33;;
46731;SDS011;32477;51.474;5.696;2022-09-23T11:37:39;8.85;;;3.65;;
46731;SDS011;32477;51.474;5.696;2022-09-23T11:40:14;5.82;;;3.20;;
46731;SDS011;32477;51.474;5.696;2022-09-23T11:42:55;8.70;;;3.70;;
46731;SDS011;32477;51.474;5.696;2022-09-23T11:45:46;7.15;;;3.25;;
46731;SDS011;32477;51.474;5.696;2022-09-23T11:48:15;10.88;;;3.78;;
46731;SDS011;32477;51.474;5.696;2022-09-23T11:51:04;6.78;;;3.25;;
46731;SDS011;32477;51.474;5.696;2022-09-23T11:53:39;9.70;;;3.35;;
46731;SDS011;32477;51.474;5.696;2022-09-23T11:58:54;10.98;;;3.00;;
46731;SDS011;32477;51.474;5.696;2022-09-23T12:01:35;4.60;;;2.95;;
46731;SDS011;32477;51.474;5.696;2022-09-23T12:04:19;7.18;;;2.63;;
46731;SDS011;32477;51.474;5.696;2022-09-23T12:06:54;10.70;;;2.65;;
46731;SDS011;32477;51.474;5.696;2022-09-23T12:09:33;5.43;;;3.00;;
46731;SDS011;32477;51.474;5.696;2022-09-23T12:12:14;7.28;;;2.85;;
46731;SDS011;32477;51.474;5.696;2022-09-23T12:14:56;8.20;;;2.40;;
46731;SDS011;32477;51.474;5.696;2022-09-23T12:17:26;10.15;;;3.22;;
46731;SDS011;32477;51.474;5.696;2022-09-23T12:23:33;9.52;;;2.67;;
46731;SDS011;32477;51.474;5.696;2022-09-23T12:26:06;4.55;;;1.90;;
46731;SDS011;32477;51.474;5.696;2022-09-23T12:28:39;4.70;;;2.33;;
46731;SDS011;32477;51.474;5.696;2022-09-23T12:31:17;9.93;;;2.25;;
46731;SDS011;32477;51.474;5.696;2022-09-23T12:33:52;9.75;;;2.20;;
46731;SDS011;32477;51.474;5.696;2022-09-23T12:36:27;3.50;;;1.83;;
46731;SDS011;32477;51.474;5.696;2022-09-23T12:39:33;7.90;;;1.67;;
46731;SDS011;32477;51.474;5.696;2022-09-23T12:42:14;3.83;;;2.00;;
46731;SDS011;32477;51.474;5.696;2022-09-23T12:44:46;4.72;;;1.90;;
46731;SDS011;32477;51.474;5.696;2022-09-23T12:49:55;6.47;;;1.88;;
46731;SDS011;32477;51.474;5.696;2022-09-23T12:52:23;4.93;;;2.17;;
46731;SDS011;32477;51.474;5.696;2022-09-23T12:54:54;5.97;;;2.22;;
46731;SDS011;32477;51.474;5.696;2022-09-23T13:02:36;4.75;;;2.00;;
46731;SDS011;32477;51.474;5.696;2022-09-23T13:05:11;5.13;;;1.90;;
46731;SDS011;32477;51.474;5.696;2022-09-23T13:08:07;5.68;;;2.10;;
46731;SDS011;32477;51.474;5.696;2022-09-23T13:10:46;3.90;;;2.30;;
46731;SDS011;32477;51.474;5.696;2022-09-23T13:13:27;4.90;;;2.33;;
46731;SDS011;32477;51.474;5.696;2022-09-23T13:16:19;6.63;;;2.10;;
46731;SDS011;32477;51.474;5.696;2022-09-23T13:18:57;5.20;;;2.10;;
46731;SDS011;32477;51.474;5.696;2022-09-23T13:26:37;5.15;;;2.67;;
46731;SDS011;32477;51.474;5.696;2022-09-23T13:29:04;7.75;;;2.20;;
46731;SDS011;32477;51.474;5.696;2022-09-23T13:31:31;11.55;;;2.28;;
46731;SDS011;32477;51.474;5.696;2022-09-23T13:34:02;7.13;;;2.30;;
46731;SDS011;32477;51.474;5.696;2022-09-23T13:36:30;6.80;;;3.28;;
46731;SDS011;32477;51.474;5.696;2022-09-23T13:39:29;8.60;;;2.40;;
46731;SDS011;32477;51.474;5.696;2022-09-23T13:41:56;6.10;;;2.50;;
46731;SDS011;32477;51.474;5.696;2022-09-23T13:44:25;8.13;;;2.72;;
46731;SDS011;32477;51.474;5.696;2022-09-23T13:46:52;4.93;;;2.70;;
46731;SDS011;32477;51.474;5.696;2022-09-23T13:49:24;4.55;;;2.20;;
46731;SDS011;32477;51.474;5.696;2022-09-23T13:51:53;4.65;;;2.53;;
46731;SDS011;32477;51.474;5.696;2022-09-23T13:54:27;6.53;;;2.58;;
46731;SDS011;32477;51.474;5.696;2022-09-23T14:04:54;10.48;;;2.90;;
46731;SDS011;32477;51.474;5.696;2022-09-23T14:07:22;11.55;;;2.60;;
46731;SDS011;32477;51.474;5.696;2022-09-23T14:09:49;10.73;;;2.60;;
46731;SDS011;32477;51.474;5.696;2022-09-23T14:12:16;6.75;;;2.72;;
46731;SDS011;32477;51.474;5.696;2022-09-23T14:14:46;8.77;;;2.92;;
46731;SDS011;32477;51.474;5.696;2022-09-23T14:17:16;15.23;;;2.85;;
46731;SDS011;32477;51.474;5.696;2022-09-23T14:19:44;9.98;;;2.83;;
46731;SDS011;32477;51.474;5.696;2022-09-23T14:22:23;7.35;;;3.25;;
46731;SDS011;32477;51.474;5.696;2022-09-23T14:24:50;8.10;;;2.75;;
46731;SDS011;32477;51.474;5.696;2022-09-23T14:27:21;8.70;;;3.38;;
46731;SDS011;32477;51.474;5.696;2022-09-23T14:29:51;11.63;;;3.03;;
46731;SDS011;32477;51.474;5.696;2022-09-23T14:32:20;5.28;;;2.53;;
46731;SDS011;32477;51.474;5.696;2022-09-23T14:34:50;13.63;;;3.13;;
46731;SDS011;32477;51.474;5.696;2022-09-23T14:37:37;8.27;;;2.97;;
46731;SDS011;32477;51.474;5.696;2022-09-23T14:40:25;8.77;;;2.83;;
46731;SDS011;32477;51.474;5.696;2022-09-23T14:43:05;9.52;;;3.05;;
46731;SDS011;32477;51.474;5.696;2022-09-23T14:45:42;14.77;;;3.33;;
46731;SDS011;32477;51.474;5.696;2022-09-23T14:48:12;6.90;;;3.17;;
46731;SDS011;32477;51.474;5.696;2022-09-23T14:50:47;7.85;;;2.88;;
46731;SDS011;32477;51.474;5.696;2022-09-23T15:01:34;10.68;;;4.72;;
46731;SDS011;32477;51.474;5.696;2022-09-23T15:04:10;6.25;;;2.90;;
46731;SDS011;32477;51.474;5.696;2022-09-23T15:06:39;5.40;;;3.40;;
46731;SDS011;32477;51.474;5.696;2022-09-23T15:09:14;7.38;;;3.75;;
46731;SDS011;32477;51.474;5.696;2022-09-23T15:11:44;7.53;;;2.75;;
46731;SDS011;32477;51.474;5.696;2022-09-23T15:14:10;7.38;;;3.58;;
46731;SDS011;32477;51.474;5.696;2022-09-23T15:16:37;5.22;;;3.28;;
46731;SDS011;32477;51.474;5.696;2022-09-23T15:19:03;9.80;;;3.50;;
46731;SDS011;32477;51.474;5.696;2022-09-23T15:21:41;15.73;;;3.65;;
46731;SDS011;32477;51.474;5.696;2022-09-23T15:30:01;9.57;;;3.58;;
46731;SDS011;32477;51.474;5.696;2022-09-23T15:32:43;9.88;;;4.15;;
46731;SDS011;32477;51.474;5.696;2022-09-23T15:35:13;6.03;;;3.70;;
46731;SDS011;32477;51.474;5.696;2022-09-23T15:37:41;8.07;;;3.78;;
46731;SDS011;32477;51.474;5.696;2022-09-23T15:40:18;6.80;;;3.80;;
46731;SDS011;32477;51.474;5.696;2022-09-23T15:42:49;9.80;;;3.40;;
46731;SDS011;32477;51.474;5.696;2022-09-23T15:45:25;7.95;;;4.13;;
46731;SDS011;32477;51.474;5.696;2022-09-23T15:48:03;10.50;;;3.80;;
46731;SDS011;32477;51.474;5.696;2022-09-23T15:50:35;9.48;;;4.10;;
46731;SDS011;32477;51.474;5.696;2022-09-23T15:53:03;6.00;;;3.88;;
46731;SDS011;32477;51.474;5.696;2022-09-23T15:55:30;8.00;;;4.88;;
46731;SDS011;32477;51.474;5.696;2022-09-23T15:57:55;12.30;;;4.88;;
46731;SDS011;32477;51.474;5.696;2022-09-23T16:00:21;12.30;;;4.40;;
46731;SDS011;32477;51.474;5.696;2022-09-23T16:02:48;11.13;;;4.68;;
46731;SDS011;32477;51.474;5.696;2022-09-23T16:05:20;9.27;;;4.10;;
46731;SDS011;32477;51.474;5.696;2022-09-23T16:08:02;9.45;;;4.97;;
46731;SDS011;32477;51.474;5.696;2022-09-23T16:10:33;10.88;;;4.25;;
46731;SDS011;32477;51.474;5.696;2022-09-23T16:13:00;15.48;;;5.22;;
46731;SDS011;32477;51.474;5.696;2022-09-23T16:15:28;34.45;;;14.10;;
46731;SDS011;32477;51.474;5.696;2022-09-23T16:17:55;17.98;;;7.72;;
46731;SDS011;32477;51.474;5.696;2022-09-23T16:20:22;18.55;;;5.63;;
46731;SDS011;32477;51.474;5.696;2022-09-23T16:22:52;11.88;;;4.63;;
46731;SDS011;32477;51.474;5.696;2022-09-23T16:25:22;11.25;;;4.82;;
46731;SDS011;32477;51.474;5.696;2022-09-23T16:27:51;11.93;;;5.28;;
46731;SDS011;32477;51.474;5.696;2022-09-23T16:30:19;15.30;;;6.65;;
46731;SDS011;32477;51.474;5.696;2022-09-23T16:32:51;10.50;;;4.72;;
46731;SDS011;32477;51.474;5.696;2022-09-23T16:35:21;15.15;;;5.05;;
46731;SDS011;32477;51.474;5.696;2022-09-23T16:37:49;8.88;;;5.10;;
46731;SDS011;32477;51.474;5.696;2022-09-23T16:40:16;9.52;;;5.28;;
46731;SDS011;32477;51.474;5.696;2022-09-23T16:42:44;11.85;;;5.43;;
46731;SDS011;32477;51.474;5.696;2022-09-23T16:45:16;14.15;;;5.47;;
46731;SDS011;32477;51.474;5.696;2022-09-23T16:47:43;14.43;;;5.63;;
46731;SDS011;32477;51.474;5.696;2022-09-23T16:50:14;15.18;;;5.97;;
46731;SDS011;32477;51.474;5.696;2022-09-23T16:52:44;10.38;;;4.85;;
46731;SDS011;32477;51.474;5.696;2022-09-23T16:55:11;14.13;;;4.88;;
46731;SDS011;32477;51.474;5.696;2022-09-23T16:57:37;10.05;;;4.50;;
46731;SDS011;32477;51.474;5.696;2022-09-23T17:00:05;11.85;;;4.55;;
46731;SDS011;32477;51.474;5.696;2022-09-23T17:02:51;7.97;;;4.05;;
46731;SDS011;32477;51.474;5.696;2022-09-23T17:05:35;8.33;;;4.00;;
46731;SDS011;32477;51.474;5.696;2022-09-23T17:08:02;6.95;;;3.83;;
46731;SDS011;32477;51.474;5.696;2022-09-23T17:10:28;11.68;;;4.78;;
46731;SDS011;32477;51.474;5.696;2022-09-23T17:12:54;10.57;;;3.90;;
46731;SDS011;32477;51.474;5.696;2022-09-23T17:15:21;7.25;;;4.22;;
46731;SDS011;32477;51.474;5.696;2022-09-23T17:17:47;8.63;;;3.92;;
46731;SDS011;32477;51.474;5.696;2022-09-23T17:20:12;9.65;;;4.60;;
46731;SDS011;32477;51.474;5.696;2022-09-23T17:22:38;9.10;;;4.80;;
46731;SDS011;32477;51.474;5.696;2022-09-23T17:25:05;7.70;;;4.43;;
46731;SDS011;32477;51.474;5.696;2022-09-23T17:27:32;12.40;;;4.95;;
46731;SDS011;32477;51.474;5.696;2022-09-23T17:29:59;10.55;;;5.03;;
46731;SDS011;32477;51.474;5.696;2022-09-23T17:32:25;11.75;;;5.28;;